createdAt,value
2023-05-09T00:02:05.043Z,8.63
2023-05-09T00:04:32.873Z,9.00
2023-05-09T00:07:00.026Z,9.85
2023-05-09T00:09:27.643Z,8.65
2023-05-09T00:11:54.632Z,10.38
2023-05-09T00:14:22.167Z,13.13
2023-05-09T00:16:49.475Z,11.93
2023-05-09T00:19:16.582Z,9.60
2023-05-09T00:21:43.670Z,10.15
2023-05-09T00:24:10.651Z,10.95
2023-05-09T00:26:38.834Z,11.57
2023-05-09T00:29:06.105Z,9.50
2023-05-09T00:31:33.754Z,10.05
2023-05-09T00:34:01.321Z,11.77
2023-05-09T00:36:28.356Z,10.82
2023-05-09T00:38:55.620Z,10.50
2023-05-09T00:41:22.670Z,11.32
2023-05-09T00:43:49.690Z,12.27
2023-05-09T00:46:16.791Z,10.77
2023-05-09T00:48:44.224Z,10.27
2023-05-09T00:51:11.284Z,10.90
2023-05-09T00:53:38.316Z,10.20
2023-05-09T00:56:06.822Z,10.48
2023-05-09T00:58:33.834Z,10.60
2023-05-09T01:01:02.262Z,11.35
2023-05-09T01:03:30.841Z,10.05
2023-05-09T01:06:19.430Z,9.82
2023-05-09T01:09:11.985Z,12.20
2023-05-09T01:12:11.196Z,10.07
2023-05-09T01:14:51.656Z,10.40
2023-05-09T01:17:48.502Z,10.43
2023-05-09T01:20:31.768Z,11.25
2023-05-09T01:23:25.773Z,12.18
2023-05-09T01:26:01.760Z,12.50
2023-05-09T01:28:36.677Z,10.57
2023-05-09T01:31:04.896Z,11.10
2023-05-09T01:33:32.920Z,13.07
2023-05-09T01:36:01.937Z,11.32
2023-05-09T01:38:30.300Z,11.35
2023-05-09T01:40:58.392Z,11.20
2023-05-09T01:43:27.104Z,11.07
2023-05-09T01:45:54.588Z,11.05
2023-05-09T01:48:22.089Z,10.77
2023-05-09T01:50:49.157Z,10.93
2023-05-09T01:53:16.382Z,9.98
2023-05-09T01:55:43.462Z,10.27
2023-05-09T01:58:12.076Z,10.85
2023-05-09T02:00:39.466Z,10.38
2023-05-09T02:03:06.866Z,10.25
2023-05-09T02:05:33.940Z,10.75
2023-05-09T02:08:01.599Z,10.63
2023-05-09T02:10:28.728Z,9.90
2023-05-09T02:12:56.286Z,9.80
2023-05-09T02:15:23.390Z,10.00
2023-05-09T02:17:51.534Z,9.32
2023-05-09T02:20:18.688Z,10.43
2023-05-09T02:22:46.420Z,9.23
2023-05-09T02:25:17.215Z,10.10
2023-05-09T02:27:45.408Z,9.60
2023-05-09T02:30:23.403Z,9.70
2023-05-09T02:32:54.122Z,9.18
2023-05-09T02:35:21.790Z,9.55
2023-05-09T02:37:48.925Z,8.90
2023-05-09T02:40:15.998Z,8.57
2023-05-09T02:42:43.094Z,8.40
2023-05-09T02:45:11.170Z,8.60
2023-05-09T02:47:38.865Z,8.48
2023-05-09T02:50:06.737Z,8.35
2023-05-09T02:52:36.222Z,7.93
2023-05-09T02:55:04.884Z,8.13
2023-05-09T02:57:34.993Z,7.75
2023-05-09T03:00:03.961Z,8.43
2023-05-09T03:02:32.730Z,8.07
2023-05-09T03:04:59.837Z,8.10
2023-05-09T03:07:26.790Z,8.02
2023-05-09T03:09:53.850Z,8.18
2023-05-09T03:12:20.968Z,8.90
2023-05-09T03:14:51.524Z,8.50
2023-05-09T03:17:21.340Z,8.35
2023-05-09T03:19:48.811Z,8.70
2023-05-09T03:22:15.924Z,7.80
2023-05-09T03:24:53.642Z,7.97
2023-05-09T03:27:20.717Z,7.53
2023-05-09T03:29:49.204Z,7.60
2023-05-09T03:32:18.184Z,7.88
2023-05-09T03:34:45.217Z,8.02
2023-05-09T03:37:12.270Z,8.60
2023-05-09T03:39:41.089Z,8.13
2023-05-09T03:42:08.092Z,8.75
2023-05-09T03:44:36.337Z,8.10
2023-05-09T03:47:03.614Z,9.38
2023-05-09T03:49:36.822Z,7.55
2023-05-09T03:52:04.998Z,9.85
2023-05-09T03:54:33.755Z,8.13
2023-05-09T03:57:01.248Z,7.55
2023-05-09T03:59:28.601Z,8.05
2023-05-09T04:01:56.979Z,8.20
2023-05-09T04:04:27.409Z,8.77
2023-05-09T04:06:55.023Z,6.88
2023-05-09T04:09:22.218Z,8.82
2023-05-09T04:11:49.306Z,10.25
2023-05-09T04:14:16.514Z,11.07
2023-05-09T04:16:43.505Z,8.27
2023-05-09T04:19:10.590Z,8.30
2023-05-09T04:21:38.495Z,8.00
2023-05-09T04:24:07.781Z,8.77
2023-05-09T04:26:40.409Z,8.13
2023-05-09T04:29:11.198Z,9.00
2023-05-09T04:31:38.657Z,7.65
2023-05-09T04:34:07.934Z,8.48
2023-05-09T04:36:37.596Z,8.90
2023-05-09T04:39:05.332Z,9.25
2023-05-09T04:41:34.858Z,9.00
2023-05-09T04:44:03.293Z,9.02
2023-05-09T04:46:30.470Z,9.98
2023-05-09T04:49:00.474Z,8.93
2023-05-09T04:51:27.751Z,7.65
2023-05-09T04:53:54.720Z,7.82
2023-05-09T04:56:27.893Z,8.55
2023-05-09T04:58:54.940Z,8.82
2023-05-09T05:01:22.027Z,7.63
2023-05-09T05:03:50.616Z,8.90
2023-05-09T05:06:17.684Z,8.43
2023-05-09T05:08:45.070Z,8.70
2023-05-09T05:11:13.620Z,8.27
2023-05-09T05:13:40.764Z,8.13
2023-05-09T05:16:07.833Z,8.15
2023-05-09T05:18:34.985Z,8.63
2023-05-09T05:21:03.099Z,7.20
2023-05-09T05:23:30.746Z,8.20
2023-05-09T05:25:57.930Z,6.55
2023-05-09T05:28:25.840Z,5.63
2023-05-09T05:30:53.198Z,6.32
2023-05-09T05:33:20.800Z,7.32
2023-05-09T05:35:47.887Z,7.10
2023-05-09T05:38:15.072Z,6.93
2023-05-09T05:40:43.630Z,7.63
2023-05-09T05:43:11.970Z,7.20
2023-05-09T05:45:39.877Z,6.50
2023-05-09T05:48:10.688Z,6.47
2023-05-09T05:50:38.008Z,6.03
2023-05-09T05:53:05.315Z,5.20
2023-05-09T05:55:33.351Z,5.47
2023-05-09T05:58:00.688Z,5.63
2023-05-09T06:00:27.689Z,5.38
2023-05-09T06:03:01.708Z,5.45
2023-05-09T06:05:34.885Z,5.93
2023-05-09T06:08:04.321Z,6.28
2023-05-09T06:10:32.758Z,4.95
2023-05-09T06:13:00.445Z,5.32
2023-05-09T06:15:28.153Z,5.32
2023-05-09T06:17:55.986Z,5.55
2023-05-09T06:20:23.839Z,5.40
2023-05-09T06:22:51.077Z,5.75
2023-05-09T06:25:19.247Z,5.90
2023-05-09T06:27:46.709Z,6.25
2023-05-09T06:30:25.495Z,6.10
2023-05-09T06:32:53.510Z,6.22
2023-05-09T06:35:20.786Z,6.05
2023-05-09T06:37:48.774Z,5.65
2023-05-09T06:40:16.710Z,6.32
2023-05-09T06:42:43.771Z,6.07
2023-05-09T06:45:11.572Z,5.00
2023-05-09T06:47:38.905Z,5.72
2023-05-09T06:50:07.128Z,5.97
2023-05-09T06:52:34.510Z,5.97
2023-05-09T06:55:01.550Z,5.97
2023-05-09T06:57:28.864Z,5.60
2023-05-09T06:59:55.857Z,5.70
2023-05-09T07:02:23.407Z,5.57
2023-05-09T07:04:50.607Z,5.65
2023-05-09T07:07:17.628Z,5.47
2023-05-09T07:09:44.633Z,5.40
2023-05-09T07:12:11.639Z,5.82
2023-05-09T07:14:38.785Z,5.28
2023-05-09T07:17:21.798Z,5.28
2023-05-09T07:19:51.173Z,5.40
2023-05-09T07:22:18.319Z,5.03
2023-05-09T07:24:46.738Z,5.30
2023-05-09T07:27:14.001Z,5.45
2023-05-09T07:29:41.056Z,4.97
2023-05-09T07:32:08.186Z,5.15
2023-05-09T07:34:36.085Z,4.82
2023-05-09T07:37:03.156Z,5.05
2023-05-09T07:39:30.356Z,4.97
2023-05-09T07:41:58.026Z,5.13
2023-05-09T07:44:25.053Z,5.53
2023-05-09T07:46:52.136Z,5.65
2023-05-09T07:49:19.699Z,5.10
2023-05-09T07:51:49.618Z,5.10
2023-05-09T07:54:21.023Z,4.75
2023-05-09T07:56:48.606Z,5.70
2023-05-09T07:59:15.671Z,7.60
2023-05-09T08:01:42.680Z,5.18
2023-05-09T08:04:10.178Z,5.40
2023-05-09T08:06:37.462Z,4.60
2023-05-09T08:09:04.933Z,4.93
2023-05-09T08:11:36.081Z,5.65
2023-05-09T08:14:03.324Z,5.22
2023-05-09T08:16:31.313Z,5.15
2023-05-09T08:18:58.890Z,5.07
2023-05-09T08:21:26.783Z,5.05
2023-05-09T08:23:53.820Z,5.40
2023-05-09T08:26:23.008Z,5.10
2023-05-09T08:28:50.070Z,4.97
2023-05-09T08:31:17.164Z,5.45
2023-05-09T08:33:44.255Z,5.53
2023-05-09T08:36:11.299Z,4.80
2023-05-09T08:38:40.522Z,4.72
2023-05-09T08:41:07.576Z,4.95
2023-05-09T08:43:35.781Z,4.85
2023-05-09T08:46:10.103Z,4.95
2023-05-09T08:48:40.470Z,4.75
2023-05-09T08:51:07.700Z,4.93
2023-05-09T08:53:34.938Z,5.05
2023-05-09T08:56:03.795Z,4.18
2023-05-09T08:58:31.769Z,4.30
2023-05-09T09:00:58.870Z,4.03
2023-05-09T09:03:26.822Z,4.30
2023-05-09T09:05:54.865Z,3.90
2023-05-09T09:08:23.145Z,4.47
2023-05-09T09:10:50.763Z,4.60
2023-05-09T09:13:18.446Z,4.00
2023-05-09T09:15:46.307Z,5.70
2023-05-09T09:18:23.953Z,3.95
2023-05-09T09:21:01.756Z,4.32
2023-05-09T09:23:28.973Z,4.50
2023-05-09T09:26:01.068Z,4.13
2023-05-09T09:28:29.460Z,4.32
2023-05-09T09:30:56.610Z,4.10
2023-05-09T09:33:25.896Z,5.25
2023-05-09T09:35:54.137Z,4.85
2023-05-09T09:38:22.235Z,4.78
2023-05-09T09:40:56.292Z,4.80
2023-05-09T09:43:30.464Z,4.00
2023-05-09T09:48:35.124Z,4.68
2023-05-09T09:51:11.732Z,5.10
2023-05-09T09:53:42.340Z,4.25
2023-05-09T09:56:09.939Z,5.20
2023-05-09T09:58:37.048Z,4.78
2023-05-09T10:01:07.801Z,4.95
2023-05-09T10:03:39.369Z,5.18
2023-05-09T10:06:12.987Z,4.75
2023-05-09T10:08:41.323Z,4.68
2023-05-09T10:11:10.858Z,4.68
2023-05-09T10:13:38.824Z,4.97
2023-05-09T10:16:06.809Z,5.03
2023-05-09T10:18:34.213Z,5.00
2023-05-09T10:21:04.177Z,4.50
2023-05-09T10:23:31.989Z,20.70
2023-05-09T10:26:08.184Z,6.78
2023-05-09T10:28:36.201Z,5.90
2023-05-09T10:31:18.513Z,7.65
2023-05-09T10:33:49.869Z,5.78
2023-05-09T10:36:18.620Z,5.82
2023-05-09T10:38:45.668Z,5.22
2023-05-09T10:41:13.714Z,4.90
2023-05-09T10:43:41.019Z,5.10
2023-05-09T10:46:08.077Z,4.80
2023-05-09T10:48:35.175Z,5.13
2023-05-09T10:51:03.462Z,5.10
2023-05-09T10:53:48.906Z,4.78
2023-05-09T10:56:27.481Z,4.88
2023-05-09T10:58:55.359Z,5.32
2023-05-09T11:01:39.135Z,4.65
2023-05-09T11:04:14.516Z,4.75
2023-05-09T11:06:41.874Z,4.68
2023-05-09T11:09:33.219Z,5.00
2023-05-09T11:12:04.656Z,4.63
2023-05-09T11:14:32.792Z,4.47
2023-05-09T11:17:03.116Z,4.70
2023-05-09T11:19:39.049Z,4.50
2023-05-09T11:22:27.726Z,4.25
2023-05-09T11:25:04.895Z,4.88
2023-05-09T11:27:39.140Z,4.00
2023-05-09T11:30:07.795Z,4.43
2023-05-09T11:32:41.268Z,4.47
2023-05-09T11:35:10.157Z,4.50
2023-05-09T11:37:46.962Z,4.47
2023-05-09T11:40:14.936Z,4.38
2023-05-09T11:42:43.992Z,4.45
2023-05-09T11:45:12.263Z,4.32
2023-05-09T11:47:48.902Z,4.25
2023-05-09T11:50:17.231Z,4.13
2023-05-09T11:52:44.279Z,4.22
2023-05-09T11:55:19.334Z,3.80
2023-05-09T11:57:49.082Z,4.03
2023-05-09T12:00:23.877Z,4.00
2023-05-09T12:02:51.492Z,4.13
2023-05-09T12:05:19.848Z,3.67
2023-05-09T12:07:47.162Z,3.40
2023-05-09T12:10:16.491Z,4.00
2023-05-09T12:12:44.748Z,4.20
2023-05-09T12:15:13.725Z,3.95
2023-05-09T12:17:42.846Z,3.85
2023-05-09T12:20:10.385Z,3.85
2023-05-09T12:22:37.670Z,3.85
2023-05-09T12:25:10.338Z,3.45
2023-05-09T12:27:38.657Z,3.90
2023-05-09T12:30:10.942Z,3.60
2023-05-09T12:32:39.601Z,3.72
2023-05-09T12:35:08.519Z,3.78
2023-05-09T12:37:35.704Z,3.20
2023-05-09T12:40:05.163Z,3.60
2023-05-09T12:42:33.480Z,3.45
2023-05-09T12:45:04.893Z,3.30
2023-05-09T12:47:34.046Z,3.50
2023-05-09T12:50:06.780Z,3.15
2023-05-09T12:52:35.360Z,3.38
2023-05-09T12:55:13.690Z,3.10
2023-05-09T12:57:41.160Z,3.30
2023-05-09T13:00:12.379Z,3.58
2023-05-09T13:02:42.203Z,3.55
2023-05-09T13:05:11.103Z,3.22
2023-05-09T13:07:48.329Z,3.63
2023-05-09T13:10:15.531Z,3.45
2023-05-09T13:12:47.062Z,3.08
2023-05-09T13:15:14.944Z,3.20
2023-05-09T13:17:42.587Z,3.40
2023-05-09T13:20:10.669Z,3.35
2023-05-09T13:22:37.904Z,3.83
2023-05-09T13:25:23.011Z,3.50
2023-05-09T13:27:51.709Z,3.72
2023-05-09T13:30:21.237Z,3.35
2023-05-09T13:32:50.798Z,3.30
2023-05-09T13:35:18.100Z,3.10
2023-05-09T13:37:45.204Z,3.55
2023-05-09T13:40:12.729Z,3.15
2023-05-09T13:42:40.958Z,2.78
2023-05-09T13:45:09.906Z,3.45
2023-05-09T13:47:38.778Z,3.00
2023-05-09T13:50:06.930Z,3.17
2023-05-09T13:52:34.194Z,3.22
2023-05-09T13:58:13.243Z,3.40
2023-05-09T14:00:40.778Z,3.20
2023-05-09T14:03:08.724Z,3.60
2023-05-09T14:05:35.843Z,3.30
2023-05-09T14:08:03.595Z,2.90
2023-05-09T14:10:30.625Z,3.13
2023-05-09T14:12:58.046Z,3.40
2023-05-09T14:15:25.951Z,3.03
2023-05-09T14:17:53.053Z,2.95
2023-05-09T14:20:20.965Z,2.97
2023-05-09T14:22:48.776Z,3.00
2023-05-09T14:25:15.999Z,2.60
2023-05-09T14:27:45.401Z,2.83
2023-05-09T14:30:13.436Z,2.90
2023-05-09T14:32:40.852Z,2.75
2023-05-09T14:35:08.450Z,2.75
2023-05-09T14:37:37.066Z,2.47
2023-05-09T14:40:05.767Z,3.20
2023-05-09T14:42:33.151Z,3.00
2023-05-09T14:45:01.158Z,2.75
2023-05-09T14:47:28.595Z,2.97
2023-05-09T14:49:56.451Z,2.97
2023-05-09T14:52:23.714Z,2.65
2023-05-09T14:54:53.973Z,3.05
2023-05-09T14:57:22.379Z,2.83
2023-05-09T15:00:42.223Z,2.60
2023-05-09T15:03:10.121Z,3.00
2023-05-09T15:05:37.668Z,2.50
2023-05-09T15:08:05.276Z,2.70
2023-05-09T15:10:33.913Z,2.55
2023-05-09T15:13:02.284Z,2.83
2023-05-09T15:15:30.300Z,2.42
2023-05-09T15:17:57.761Z,2.80
2023-05-09T15:20:24.837Z,2.72
2023-05-09T15:22:52.024Z,2.90
2023-05-09T15:25:19.761Z,2.95
2023-05-09T15:27:46.803Z,3.10
2023-05-09T15:30:14.350Z,3.03
2023-05-09T15:32:41.836Z,3.33
2023-05-09T15:35:09.085Z,3.05
2023-05-09T15:37:36.494Z,3.25
2023-05-09T15:40:04.206Z,3.10
2023-05-09T15:42:31.496Z,3.10
2023-05-09T15:44:58.954Z,3.35
2023-05-09T15:47:26.190Z,3.33
2023-05-09T15:49:53.473Z,3.20
2023-05-09T15:52:20.566Z,3.97
2023-05-09T15:54:47.729Z,3.75
2023-05-09T15:57:14.874Z,4.20
2023-05-09T15:59:41.901Z,3.67
2023-05-09T16:02:09.016Z,4.22
2023-05-09T16:04:36.741Z,3.28
2023-05-09T16:07:03.855Z,4.55
2023-05-09T16:09:32.846Z,4.00
2023-05-09T16:12:03.347Z,3.53
2023-05-09T16:14:31.241Z,3.67
2023-05-09T16:17:06.053Z,3.95
2023-05-09T16:19:37.320Z,3.60
2023-05-09T16:22:04.528Z,4.35
2023-05-09T16:24:32.714Z,7.03
2023-05-09T16:27:00.073Z,8.43
2023-05-09T16:29:28.501Z,9.13
2023-05-09T16:31:55.643Z,5.85
2023-05-09T16:34:22.758Z,4.90
2023-05-09T16:36:50.052Z,4.80
2023-05-09T16:39:17.504Z,4.15
2023-05-09T16:41:44.577Z,4.55
2023-05-09T16:44:11.747Z,5.47
2023-05-09T16:46:38.932Z,5.47
2023-05-09T16:49:06.043Z,7.95
2023-05-09T16:51:33.149Z,5.28
2023-05-09T16:54:00.174Z,8.02
2023-05-09T16:56:27.819Z,6.28
2023-05-09T16:58:55.834Z,9.80
2023-05-09T17:01:22.906Z,12.30
2023-05-09T17:03:50.422Z,11.95
2023-05-09T17:06:17.852Z,7.85
2023-05-09T17:08:45.647Z,6.47
2023-05-09T17:11:12.872Z,8.45
2023-05-09T17:13:40.795Z,7.20
2023-05-09T17:16:07.931Z,16.50
2023-05-09T17:18:38.038Z,7.93
2023-05-09T17:21:07.034Z,8.85
2023-05-09T17:23:34.087Z,6.65
2023-05-09T17:26:01.681Z,4.82
2023-05-09T17:28:28.815Z,43.72
2023-05-09T17:30:56.048Z,19.23
2023-05-09T17:33:23.146Z,7.90
2023-05-09T17:35:50.209Z,7.93
2023-05-09T17:38:17.737Z,7.35
2023-05-09T17:40:45.479Z,6.32
2023-05-09T17:43:13.370Z,5.20
2023-05-09T17:45:40.366Z,4.82
2023-05-09T17:48:10.041Z,4.93
2023-05-09T17:50:37.387Z,13.40
2023-05-09T17:53:11.781Z,10.45
2023-05-09T17:55:39.451Z,8.20
2023-05-09T17:58:08.057Z,7.15
2023-05-09T18:00:35.518Z,6.10
2023-05-09T18:03:04.850Z,6.47
2023-05-09T18:05:33.672Z,8.63
2023-05-09T18:08:01.317Z,5.07
2023-05-09T18:10:29.093Z,7.15
2023-05-09T18:12:56.382Z,33.17
2023-05-09T18:15:24.323Z,12.05
2023-05-09T18:17:51.601Z,10.77
2023-05-09T18:20:18.915Z,17.17
2023-05-09T18:22:47.108Z,11.88
2023-05-09T18:25:14.324Z,25.48
2023-05-09T18:27:41.451Z,12.52
2023-05-09T18:30:09.159Z,13.30
2023-05-09T18:32:36.251Z,20.30
2023-05-09T18:35:04.204Z,14.63
2023-05-09T18:37:31.632Z,13.35
2023-05-09T18:39:58.598Z,12.63
2023-05-09T18:42:25.776Z,8.45
2023-05-09T18:44:53.422Z,7.18
2023-05-09T18:47:26.749Z,6.80
2023-05-09T18:49:59.254Z,4.65
2023-05-09T18:52:55.318Z,4.47
2023-05-09T18:55:23.390Z,4.68
2023-05-09T18:58:23.571Z,10.20
2023-05-09T19:00:55.305Z,9.93
2023-05-09T19:03:27.852Z,6.40
2023-05-09T19:05:55.281Z,7.38
2023-05-09T19:08:23.384Z,8.07
2023-05-09T19:10:54.587Z,19.67
2023-05-09T19:13:21.603Z,42.40
2023-05-09T19:15:48.775Z,7.57
2023-05-09T19:18:15.830Z,7.72
2023-05-09T19:20:46.408Z,5.65
2023-05-09T19:23:38.612Z,5.97
2023-05-09T19:26:05.685Z,5.05
2023-05-09T19:28:35.724Z,5.65
2023-05-09T19:31:03.975Z,5.65
2023-05-09T19:33:31.736Z,6.18
2023-05-09T19:36:10.120Z,5.78
2023-05-09T19:38:38.909Z,6.05
2023-05-09T19:41:08.796Z,5.63
2023-05-09T19:46:46.847Z,5.68
2023-05-09T19:49:17.818Z,5.20
2023-05-09T19:51:52.127Z,5.13
2023-05-09T19:54:19.606Z,6.03
2023-05-09T19:56:55.767Z,6.13
2023-05-09T20:00:19.696Z,5.15
2023-05-09T20:02:49.114Z,5.55
2023-05-09T20:05:16.353Z,6.00
2023-05-09T20:08:03.928Z,5.72
2023-05-09T20:10:34.436Z,5.55
2023-05-09T20:13:06.185Z,4.85
2023-05-09T20:15:38.088Z,5.30
2023-05-09T20:18:11.155Z,4.82
2023-05-09T20:20:43.964Z,4.57
2023-05-09T20:23:43.507Z,4.20
2023-05-09T20:26:46.249Z,4.10
2023-05-09T20:29:22.147Z,4.15
2023-05-09T20:31:50.967Z,4.90
2023-05-09T20:34:22.836Z,4.00
2023-05-09T20:37:01.068Z,4.95
2023-05-09T20:39:38.117Z,5.10
2023-05-09T20:42:10.196Z,4.38
2023-05-09T20:44:44.271Z,4.40
2023-05-09T20:47:11.687Z,4.18
2023-05-09T20:50:08.399Z,5.10
2023-05-09T20:52:56.024Z,4.25
2023-05-09T20:55:23.035Z,4.65
2023-05-09T20:57:50.036Z,4.22
2023-05-09T21:00:17.407Z,4.55
2023-05-09T21:02:44.722Z,3.78
2023-05-09T21:05:11.871Z,4.10
2023-05-09T21:07:38.863Z,4.32
2023-05-09T21:10:06.860Z,4.13
2023-05-09T21:12:34.984Z,4.25
2023-05-09T21:15:03.214Z,4.25
2023-05-09T21:17:30.535Z,4.93
2023-05-09T21:19:58.168Z,4.45
2023-05-09T21:22:25.245Z,4.82
2023-05-09T21:24:52.787Z,4.90
2023-05-09T21:27:19.713Z,4.50
2023-05-09T21:29:49.293Z,4.32
2023-05-09T21:32:16.980Z,3.90
2023-05-09T21:34:43.973Z,4.28
2023-05-09T21:37:10.951Z,4.68
2023-05-09T21:39:38.006Z,4.40
2023-05-09T21:42:05.047Z,4.32
2023-05-09T21:44:32.394Z,4.70
2023-05-09T21:46:59.545Z,4.32
2023-05-09T21:49:29.236Z,4.32
2023-05-09T21:51:56.223Z,4.57
2023-05-09T21:54:23.442Z,4.18
2023-05-09T21:56:50.539Z,5.18
2023-05-09T21:59:22.853Z,3.88
2023-05-09T22:01:49.793Z,4.18
2023-05-09T22:04:16.742Z,4.32
2023-05-09T22:06:43.819Z,4.60
2023-05-09T22:09:10.831Z,3.88
2023-05-09T22:11:37.836Z,4.15
2023-05-09T22:14:04.999Z,3.70
2023-05-09T22:16:31.993Z,3.33
2023-05-09T22:18:59.027Z,3.85
2023-05-09T22:21:26.545Z,3.38
2023-05-09T22:23:53.532Z,3.65
2023-05-09T22:26:21.747Z,3.70
2023-05-09T22:28:49.298Z,4.28
2023-05-09T22:31:16.263Z,3.72
2023-05-09T22:33:43.347Z,3.40
2023-05-09T22:36:10.863Z,4.07
2023-05-09T22:38:37.854Z,3.67
2023-05-09T22:41:04.864Z,4.00
2023-05-09T22:43:38.687Z,3.63
2023-05-09T22:46:06.459Z,3.63
2023-05-09T22:48:33.780Z,4.13
2023-05-09T22:51:00.835Z,3.50
2023-05-09T22:53:28.204Z,3.47
2023-05-09T22:55:55.417Z,3.40
2023-05-09T22:58:22.715Z,3.90
2023-05-09T23:00:49.873Z,3.58
2023-05-09T23:03:17.534Z,3.20
2023-05-09T23:05:44.652Z,3.42
2023-05-09T23:08:11.718Z,3.80
2023-05-09T23:10:38.905Z,3.50
2023-05-09T23:13:06.052Z,3.15
2023-05-09T23:15:33.979Z,3.17
2023-05-09T23:18:01.707Z,3.33
2023-05-09T23:20:28.874Z,2.92
2023-05-09T23:22:55.952Z,3.45
2023-05-09T23:25:23.099Z,3.45
2023-05-09T23:27:50.161Z,3.33
2023-05-09T23:30:17.782Z,3.58
2023-05-09T23:32:45.149Z,3.90
2023-05-09T23:35:12.230Z,3.45
2023-05-09T23:37:39.299Z,4.53
2023-05-09T23:40:06.975Z,4.40
2023-05-09T23:42:34.721Z,3.95
2023-05-09T23:45:01.752Z,4.38
2023-05-09T23:47:28.858Z,4.88
2023-05-09T23:49:55.818Z,3.70
2023-05-09T23:52:23.404Z,4.30
2023-05-09T23:54:50.605Z,4.18
2023-05-09T23:57:17.564Z,4.50
2023-05-09T23:59:44.896Z,4.10
